Grosse Isle, Canada
Current Conditions -  °F | °C
As of 8:00 AM on Thursday 23 Oct 2014 (Local Time) from CYWG Reporting Station
Broken Clouds Broken Clouds  
Wind Chill: 50°   Ceiling: 7900
Heat Index: 50°   Visibility: 15mi
Dew Point: 46°   Wind: 10mph
Humidity: 87%   Direction: 220°SW
Pressure: 29.76"   Gusts: NA
Location:  50.06°N, 97.44°W
Report Text: CYWG 231300Z 22009KT 15SM BKN079 10/08 A2976 RMK AC7 SLP084
Loading
Personal Weather Stations






























Interactive Weather Map
Tropical Storm Tracking
New forecast layout! Learn more

10-Day Weather Forecast

Advertisements
Track Severe Weather on mobile